Terminal Aerodrome Forecast
Issued by NWS

Home | Current Version | Previous Version | Text Only | Print | Product List | Glossary On
Versions: 1 2 3 4 5 6 7 8 9 10 11 12 13 14 15 16 17 18 19 20 21 22
000
FTUS41 KPHI 061008 AAA
TAFMIV
TAF AMD
KMIV 061008Z 0610/0706 10003KT 5SM BR FEW110 OVC250
      TEMPO 0611/0612 6SM BR
     FM061200 10005KT P6SM VCSH BKN070
     FM061700 13007KT P6SM SCT050 BKN100
     FM070000 12006KT P6SM SCT050 BKN100
      TEMPO 0704/0706 5SM BR=

USA.gov is the U.S. government's official web portal to all federal, state and local government web resources and services.